createdAt,value
2017-11-30T00:00:01.267Z,19.17
2017-11-30T00:02:28.772Z,18.43
2017-11-30T00:04:56.303Z,18.10
2017-11-30T00:07:23.812Z,16.00
2017-11-30T00:09:51.333Z,16.40
2017-11-30T00:12:19.608Z,16.00
2017-11-30T00:14:47.895Z,16.00
2017-11-30T00:17:16.159Z,17.53
2017-11-30T00:19:44.471Z,16.97
2017-11-30T00:22:11.969Z,18.20
2017-11-30T00:24:39.496Z,17.80
2017-11-30T00:27:06.987Z,17.83
2017-11-30T00:29:34.512Z,17.50
2017-11-30T00:32:02.033Z,19.37
2017-11-30T00:34:30.316Z,18.23
2017-11-30T00:36:58.580Z,18.37
2017-11-30T00:39:26.113Z,18.37
2017-11-30T00:41:53.620Z,18.27
2017-11-30T00:44:33.991Z,17.67
2017-11-30T00:47:01.487Z,16.60
2017-11-30T00:49:29.015Z,18.20
2017-11-30T00:51:56.515Z,18.50
2017-11-30T00:54:24.039Z,19.07
2017-11-30T00:56:51.540Z,16.30
2017-11-30T00:59:19.061Z,17.07
2017-11-30T01:01:46.558Z,17.30
2017-11-30T01:04:14.864Z,17.77
2017-11-30T01:06:42.369Z,17.30
2017-11-30T01:09:09.884Z,17.23
2017-11-30T01:11:37.382Z,18.53
2017-11-30T01:14:04.937Z,17.37
2017-11-30T01:16:32.486Z,18.47
2017-11-30T01:19:00.013Z,19.13
2017-11-30T01:21:27.531Z,19.20
2017-11-30T01:23:55.070Z,19.30
2017-11-30T01:26:22.587Z,20.70
2017-11-30T01:28:50.200Z,20.90
2017-11-30T01:31:17.708Z,19.30
2017-11-30T01:33:45.228Z,16.87
2017-11-30T01:36:12.726Z,18.50
2017-11-30T01:38:40.243Z,17.70
2017-11-30T01:41:07.740Z,18.80
2017-11-30T01:43:35.277Z,18.83
2017-11-30T01:46:03.552Z,15.93
2017-11-30T01:48:31.843Z,17.73
2017-11-30T01:51:00.116Z,17.13
2017-11-30T01:53:28.407Z,15.87
2017-11-30T01:55:55.907Z,19.07
2017-11-30T01:58:23.427Z,20.10
2017-11-30T02:00:50.928Z,20.03
2017-11-30T02:03:18.453Z,19.33
2017-11-30T02:05:45.964Z,18.03
2017-11-30T02:08:13.516Z,18.33
2017-11-30T02:10:41.018Z,19.40
2017-11-30T02:13:08.547Z,18.03
2017-11-30T02:15:36.045Z,18.90
2017-11-30T02:18:03.560Z,18.80
2017-11-30T02:20:31.057Z,18.10
2017-11-30T02:22:58.580Z,19.30
2017-11-30T02:25:26.076Z,19.47
2017-11-30T02:27:53.609Z,19.90
2017-11-30T02:30:21.873Z,20.10
2017-11-30T02:32:49.405Z,17.80
2017-11-30T02:35:16.904Z,19.40
2017-11-30T02:37:45.191Z,19.33
2017-11-30T02:40:12.693Z,18.97
2017-11-30T02:42:40.223Z,20.37
2017-11-30T02:45:07.736Z,20.50
2017-11-30T02:47:35.267Z,21.70
2017-11-30T02:50:02.772Z,19.50
2017-11-30T02:52:30.322Z,20.80
2017-11-30T02:54:58.614Z,19.63
2017-11-30T02:57:26.907Z,20.93
2017-11-30T02:59:54.417Z,21.07
2017-11-30T03:02:21.953Z,21.03
2017-11-30T03:04:49.477Z,21.37
2017-11-30T03:07:17.012Z,20.40
2017-11-30T03:09:45.289Z,19.43
2017-11-30T03:12:13.589Z,20.20
2017-11-30T03:14:41.087Z,19.30
2017-11-30T03:17:08.624Z,20.37
2017-11-30T03:19:36.127Z,20.00
2017-11-30T03:22:03.648Z,21.10
2017-11-30T03:24:31.151Z,20.00
2017-11-30T03:26:59.456Z,19.67
2017-11-30T03:29:26.972Z,21.50
2017-11-30T03:31:54.492Z,20.20
2017-11-30T03:34:21.987Z,21.57
2017-11-30T03:36:49.505Z,20.97
2017-11-30T03:39:17.008Z,21.40
2017-11-30T03:41:44.532Z,21.40
2017-11-30T03:44:12.037Z,22.97
2017-11-30T03:46:39.549Z,22.67
2017-11-30T03:49:07.073Z,21.53
2017-11-30T03:51:35.347Z,22.93
2017-11-30T03:54:02.895Z,22.00
2017-11-30T03:56:30.453Z,22.57
2017-11-30T03:58:58.772Z,25.47
2017-11-30T04:01:26.300Z,24.47
2017-11-30T04:03:53.858Z,23.60
2017-11-30T04:06:22.142Z,25.00
2017-11-30T04:08:49.686Z,23.70
2017-11-30T04:11:17.222Z,23.07
2017-11-30T04:13:44.766Z,24.03
2017-11-30T04:16:12.282Z,24.50
2017-11-30T04:18:39.826Z,24.07
2017-11-30T04:21:07.342Z,25.83
2017-11-30T04:23:34.879Z,24.10
2017-11-30T04:26:02.411Z,24.53
2017-11-30T04:28:30.713Z,24.73
2017-11-30T04:30:58.237Z,24.97
2017-11-30T04:33:26.547Z,25.20
2017-11-30T04:35:54.074Z,24.60
2017-11-30T04:38:22.394Z,24.17
2017-11-30T04:40:49.910Z,25.47
2017-11-30T04:43:17.455Z,24.30
2017-11-30T04:45:44.983Z,24.27
2017-11-30T04:48:12.530Z,23.37
2017-11-30T04:50:40.049Z,25.33
2017-11-30T04:53:08.362Z,25.90
2017-11-30T04:55:36.504Z,25.53
2017-11-30T04:58:04.846Z,23.70
2017-11-30T05:00:32.363Z,24.70
2017-11-30T05:02:59.902Z,27.10
2017-11-30T05:05:28.185Z,28.00
2017-11-30T05:07:55.739Z,25.90
2017-11-30T05:10:23.257Z,25.23
2017-11-30T05:12:51.573Z,25.67
2017-11-30T05:15:19.095Z,23.90
2017-11-30T05:17:46.642Z,25.17
2017-11-30T05:20:14.154Z,23.70
2017-11-30T05:22:41.729Z,24.00
2017-11-30T05:25:09.277Z,23.37
2017-11-30T05:27:36.828Z,22.40
2017-11-30T05:30:05.119Z,24.03
2017-11-30T05:32:32.673Z,25.20
2017-11-30T05:35:00.195Z,24.83
2017-11-30T05:37:27.735Z,24.30
2017-11-30T05:39:55.273Z,22.27
2017-11-30T05:42:22.810Z,21.13
2017-11-30T05:44:50.334Z,21.77
2017-11-30T05:47:17.887Z,20.30
2017-11-30T05:49:45.404Z,20.17
2017-11-30T05:52:12.948Z,18.87
2017-11-30T05:54:40.477Z,20.10
2017-11-30T05:57:08.011Z,21.00
2017-11-30T05:59:35.528Z,20.63
2017-11-30T06:02:03.071Z,18.60
2017-11-30T06:04:30.596Z,20.00
2017-11-30T06:06:58.132Z,20.40
2017-11-30T06:09:25.645Z,20.80
2017-11-30T06:11:53.945Z,21.20
2017-11-30T06:14:21.449Z,17.87
2017-11-30T06:16:48.982Z,20.60
2017-11-30T06:19:16.514Z,20.00
2017-11-30T06:21:44.044Z,18.53
2017-11-30T06:24:11.564Z,20.23
2017-11-30T06:26:39.097Z,19.90
2017-11-30T06:29:06.601Z,18.60
2017-11-30T06:31:34.133Z,19.30
2017-11-30T06:34:01.655Z,18.93
2017-11-30T06:36:29.976Z,20.17
2017-11-30T06:38:57.493Z,19.73
2017-11-30T06:41:25.798Z,18.50
2017-11-30T06:43:53.313Z,19.50
2017-11-30T06:46:21.613Z,18.63
2017-11-30T06:48:49.134Z,20.23
2017-11-30T06:51:17.432Z,17.90
2017-11-30T06:53:45.705Z,17.17
2017-11-30T06:56:13.245Z,18.07
2017-11-30T06:58:40.761Z,43.80
2017-11-30T07:01:08.294Z,16.73
2017-11-30T07:03:36.570Z,14.90
2017-11-30T07:06:04.115Z,15.20
2017-11-30T07:08:31.643Z,14.27
2017-11-30T07:10:59.188Z,16.27
2017-11-30T07:13:26.730Z,16.20
2017-11-30T07:15:54.277Z,16.43
2017-11-30T07:18:21.829Z,16.30
2017-11-30T07:20:49.361Z,16.23
2017-11-30T07:23:16.898Z,15.37
2017-11-30T07:25:44.438Z,16.43
2017-11-30T07:28:11.951Z,14.93
2017-11-30T07:30:40.248Z,32.00
2017-11-30T07:33:07.757Z,35.50
2017-11-30T07:35:35.289Z,16.43
2017-11-30T07:38:02.814Z,15.80
2017-11-30T07:40:31.121Z,14.30
2017-11-30T07:42:58.646Z,14.40
2017-11-30T07:45:26.195Z,14.87
2017-11-30T07:47:54.499Z,14.77
2017-11-30T07:50:22.050Z,12.57
2017-11-30T07:52:49.571Z,12.50
2017-11-30T07:55:17.110Z,12.50
2017-11-30T07:57:44.642Z,13.60
2017-11-30T08:00:12.181Z,12.57
2017-11-30T08:02:40.531Z,13.40
2017-11-30T08:05:08.162Z,11.93
2017-11-30T08:07:35.679Z,12.87
2017-11-30T08:10:03.234Z,13.90
2017-11-30T08:12:31.534Z,12.77
2017-11-30T08:14:59.102Z,12.03
2017-11-30T08:17:26.620Z,11.73
2017-11-30T08:19:54.912Z,11.53
2017-11-30T08:22:22.457Z,13.00
2017-11-30T08:24:50.741Z,12.90
2017-11-30T08:27:18.286Z,13.30
2017-11-30T08:29:46.569Z,12.80
2017-11-30T08:32:14.877Z,13.20
2017-11-30T08:34:42.393Z,13.50
2017-11-30T08:37:09.998Z,12.67
2017-11-30T08:39:37.514Z,12.60
2017-11-30T08:42:05.823Z,12.87
2017-11-30T08:44:33.356Z,12.83
2017-11-30T08:47:01.682Z,15.50
2017-11-30T08:49:29.199Z,13.00
2017-11-30T08:51:57.499Z,12.87
2017-11-30T08:54:25.015Z,13.80
2017-11-30T08:56:52.551Z,13.13
2017-11-30T08:59:20.076Z,12.50
2017-11-30T09:01:47.618Z,12.50
2017-11-30T09:04:15.901Z,12.40
2017-11-30T09:06:43.433Z,11.37
2017-11-30T09:09:10.961Z,9.10
2017-11-30T09:11:38.494Z,10.43
2017-11-30T09:14:06.024Z,11.60
2017-11-30T09:16:33.574Z,10.47
2017-11-30T09:19:01.878Z,12.10
2017-11-30T09:21:29.405Z,12.30
2017-11-30T09:23:57.681Z,12.10
2017-11-30T09:26:25.209Z,12.83
2017-11-30T09:28:52.709Z,12.67
2017-11-30T09:31:21.026Z,12.00
2017-11-30T09:33:48.546Z,12.03
2017-11-30T09:36:16.849Z,12.97
2017-11-30T09:38:44.356Z,13.60
2017-11-30T09:41:11.881Z,13.93
2017-11-30T09:43:39.444Z,13.90
2017-11-30T09:46:07.366Z,13.57
2017-11-30T09:48:35.645Z,13.40
2017-11-30T09:51:03.942Z,13.73
2017-11-30T09:53:31.443Z,13.20
2017-11-30T09:55:58.966Z,12.30
2017-11-30T09:58:26.495Z,14.50
2017-11-30T10:00:54.795Z,12.97
2017-11-30T10:03:22.303Z,11.90
2017-11-30T10:05:49.868Z,13.40
2017-11-30T10:08:17.421Z,13.40
2017-11-30T10:10:44.973Z,13.47
2017-11-30T10:13:12.479Z,12.97
2017-11-30T10:15:40.881Z,12.10
2017-11-30T10:18:08.389Z,11.43
2017-11-30T10:20:35.929Z,11.33
2017-11-30T10:23:03.569Z,11.80
2017-11-30T10:25:31.119Z,11.10
2017-11-30T10:27:58.625Z,11.17
2017-11-30T10:30:27.151Z,11.63
2017-11-30T10:32:54.664Z,11.57
2017-11-30T10:35:22.302Z,12.10
2017-11-30T10:37:49.821Z,11.87
2017-11-30T10:40:17.354Z,12.60
2017-11-30T10:42:44.861Z,12.03
2017-11-30T10:45:12.397Z,12.03
2017-11-30T10:47:39.901Z,11.90
2017-11-30T10:50:07.437Z,12.83
2017-11-30T10:52:34.946Z,12.50
2017-11-30T10:55:02.481Z,12.00
2017-11-30T10:57:29.993Z,13.03
2017-11-30T10:59:57.518Z,11.90
2017-11-30T11:02:25.038Z,13.67
2017-11-30T11:04:52.574Z,13.40
2017-11-30T11:07:20.126Z,13.23
2017-11-30T11:09:47.656Z,11.23
2017-11-30T11:12:15.170Z,11.70
2017-11-30T11:14:42.710Z,11.97
2017-11-30T11:17:10.221Z,11.90
2017-11-30T11:19:37.749Z,10.83
2017-11-30T11:22:05.262Z,11.07
2017-11-30T11:24:33.562Z,11.63
2017-11-30T11:27:01.071Z,12.17
2017-11-30T11:29:29.382Z,11.23
2017-11-30T11:31:57.652Z,11.03
2017-11-30T11:34:25.953Z,9.50
2017-11-30T11:36:53.477Z,9.90
2017-11-30T11:39:21.770Z,10.23
2017-11-30T11:41:50.053Z,10.63
2017-11-30T11:44:17.587Z,10.27
2017-11-30T11:46:45.096Z,9.93
2017-11-30T11:49:12.625Z,9.63
2017-11-30T11:51:40.136Z,9.50
2017-11-30T11:54:07.667Z,10.13
2017-11-30T11:56:35.177Z,9.40
2017-11-30T11:59:02.708Z,8.10
2017-11-30T12:01:30.216Z,8.07
2017-11-30T12:03:58.510Z,8.50
2017-11-30T12:06:26.018Z,9.40
2017-11-30T12:08:53.549Z,7.70
2017-11-30T12:11:21.050Z,8.10
2017-11-30T12:13:48.577Z,8.03
2017-11-30T12:16:16.081Z,8.80
2017-11-30T12:18:44.381Z,9.03
2017-11-30T12:21:11.926Z,8.60
2017-11-30T12:23:39.458Z,9.00
2017-11-30T12:26:06.963Z,8.93
2017-11-30T12:28:34.493Z,9.27
2017-11-30T12:31:02.769Z,10.70
2017-11-30T12:33:31.070Z,10.10
2017-11-30T12:35:58.581Z,9.33
2017-11-30T12:38:26.885Z,9.97
2017-11-30T12:40:54.394Z,9.60
2017-11-30T12:43:21.929Z,10.50
2017-11-30T12:45:49.433Z,9.67
2017-11-30T12:48:16.966Z,8.57
2017-11-30T12:50:44.469Z,9.80
2017-11-30T12:53:11.992Z,9.40
2017-11-30T12:55:39.498Z,11.97
2017-11-30T12:58:07.024Z,11.03
2017-11-30T13:00:34.552Z,10.80
2017-11-30T13:03:02.064Z,10.23
2017-11-30T13:05:30.419Z,10.20
2017-11-30T13:07:57.914Z,9.70
2017-11-30T13:10:25.435Z,10.10
2017-11-30T13:12:52.939Z,9.70
2017-11-30T13:15:20.463Z,11.00
2017-11-30T13:17:47.959Z,9.57
2017-11-30T13:20:15.483Z,10.63
2017-11-30T13:22:42.997Z,10.33
2017-11-30T13:25:10.523Z,10.13
2017-11-30T13:27:38.789Z,10.30
2017-11-30T13:30:07.080Z,8.97
2017-11-30T13:32:34.592Z,10.37
2017-11-30T13:35:02.140Z,10.10
2017-11-30T13:37:29.657Z,11.13
2017-11-30T13:39:57.179Z,10.67
2017-11-30T13:42:24.688Z,10.50
2017-11-30T13:44:52.216Z,10.63
2017-11-30T13:47:20.486Z,10.97
2017-11-30T13:49:48.780Z,11.57
2017-11-30T13:52:16.284Z,11.17
2017-11-30T13:54:43.812Z,10.60
2017-11-30T13:57:11.321Z,10.67
2017-11-30T13:59:38.847Z,10.90
2017-11-30T14:02:06.349Z,9.90
2017-11-30T14:04:33.871Z,10.03
2017-11-30T14:07:01.379Z,10.47
2017-11-30T14:09:29.687Z,10.60
2017-11-30T14:11:57.187Z,10.07
2017-11-30T14:14:24.717Z,10.33
2017-11-30T14:16:52.216Z,10.60
2017-11-30T14:19:19.739Z,10.90
2017-11-30T14:21:47.244Z,11.00
2017-11-30T14:24:15.530Z,15.00
2017-11-30T14:26:43.795Z,11.60
2017-11-30T14:29:12.092Z,23.13
2017-11-30T14:31:39.600Z,14.30
2017-11-30T14:34:07.130Z,24.10
2017-11-30T14:36:34.636Z,17.73
2017-11-30T14:39:02.159Z,15.47
2017-11-30T14:41:29.668Z,13.70
2017-11-30T14:43:57.200Z,15.87
2017-11-30T14:46:24.704Z,13.40
2017-11-30T14:48:52.245Z,14.33
2017-11-30T14:51:19.759Z,14.97
2017-11-30T14:53:47.292Z,14.87
2017-11-30T14:56:14.801Z,15.47
2017-11-30T14:58:42.326Z,16.97
2017-11-30T15:01:09.832Z,16.63
2017-11-30T15:03:38.124Z,17.30
2017-11-30T15:06:05.633Z,15.70
2017-11-30T15:08:33.166Z,18.00
2017-11-30T15:11:00.676Z,17.00
2017-11-30T15:13:28.203Z,18.03
2017-11-30T15:15:55.709Z,16.90
2017-11-30T15:18:24.004Z,17.50
2017-11-30T15:20:51.516Z,17.20
2017-11-30T15:23:19.043Z,18.50
2017-11-30T15:25:46.547Z,17.50
2017-11-30T15:28:14.076Z,17.70
2017-11-30T15:30:41.583Z,17.80
2017-11-30T15:33:09.875Z,17.87
2017-11-30T15:35:37.391Z,17.67
2017-11-30T15:38:06.444Z,16.43
2017-11-30T15:40:33.944Z,16.53
2017-11-30T15:43:01.472Z,16.63
2017-11-30T15:45:28.980Z,16.40
2017-11-30T15:47:57.267Z,16.27
2017-11-30T15:50:25.551Z,16.90
2017-11-30T15:52:53.080Z,17.23
2017-11-30T15:55:20.581Z,16.07
2017-11-30T15:57:48.104Z,15.73
2017-11-30T16:00:15.619Z,17.00
2017-11-30T16:02:43.152Z,17.07
2017-11-30T16:05:10.647Z,16.40
2017-11-30T16:07:38.176Z,17.47
2017-11-30T16:10:05.680Z,15.27
2017-11-30T16:12:33.207Z,16.60
2017-11-30T16:15:00.708Z,15.77
2017-11-30T16:17:28.240Z,15.30
2017-11-30T16:19:55.754Z,16.47
2017-11-30T16:22:23.284Z,14.70
2017-11-30T16:24:50.785Z,15.30
2017-11-30T16:27:18.315Z,16.10
2017-11-30T16:29:46.580Z,15.83
2017-11-30T16:32:14.200Z,15.97
2017-11-30T16:34:41.713Z,17.07
2017-11-30T16:37:10.017Z,15.77
2017-11-30T16:39:37.519Z,15.70
2017-11-30T16:42:05.051Z,15.00
2017-11-30T16:44:32.553Z,15.17
2017-11-30T16:47:00.079Z,15.50
2017-11-30T16:49:27.580Z,16.20
2017-11-30T16:51:55.885Z,15.77
2017-11-30T16:54:23.384Z,16.10
2017-11-30T16:56:51.680Z,17.40
2017-11-30T16:59:19.184Z,15.20
2017-11-30T17:01:46.708Z,15.60
2017-11-30T17:04:14.983Z,14.10
2017-11-30T17:06:42.506Z,14.97
2017-11-30T17:09:10.040Z,14.73
2017-11-30T17:11:37.565Z,15.97
2017-11-30T17:14:05.831Z,14.93
2017-11-30T17:16:34.108Z,15.27
2017-11-30T17:19:02.404Z,14.60
2017-11-30T17:21:29.903Z,14.50
2017-11-30T17:23:57.436Z,14.43
2017-11-30T17:26:24.941Z,14.73
2017-11-30T17:28:52.468Z,15.07
2017-11-30T17:31:19.972Z,15.20
2017-11-30T17:33:47.499Z,17.13
2017-11-30T17:36:15.035Z,16.20
2017-11-30T17:38:42.540Z,15.47
2017-11-30T17:41:10.045Z,15.77
2017-11-30T17:43:37.593Z,15.43
2017-11-30T17:46:05.104Z,13.67
2017-11-30T17:48:32.641Z,14.20
2017-11-30T17:51:00.144Z,15.37
2017-11-30T17:53:27.668Z,14.10
2017-11-30T17:55:55.177Z,15.43
2017-11-30T17:58:22.703Z,15.97
2017-11-30T18:00:50.212Z,15.07
2017-11-30T18:03:17.752Z,16.60
2017-11-30T18:05:46.015Z,16.83
2017-11-30T18:08:14.307Z,15.63
2017-11-30T18:10:42.595Z,14.70
2017-11-30T18:13:10.127Z,15.70
2017-11-30T18:15:37.639Z,16.77
2017-11-30T18:18:08.045Z,16.03
2017-11-30T18:20:35.552Z,15.43
2017-11-30T18:23:03.081Z,16.37
2017-11-30T18:25:30.616Z,16.93
2017-11-30T18:27:58.157Z,17.53
2017-11-30T18:30:26.463Z,19.00
2017-11-30T18:32:53.992Z,19.20
2017-11-30T18:35:22.270Z,20.00
2017-11-30T18:37:50.555Z,19.80
2017-11-30T18:40:18.066Z,17.93
2017-11-30T18:42:45.597Z,18.50
2017-11-30T18:45:13.099Z,17.90
2017-11-30T18:47:40.624Z,19.30
2017-11-30T18:50:08.128Z,18.10
2017-11-30T18:52:36.424Z,20.20
2017-11-30T18:55:03.930Z,19.13
2017-11-30T18:57:31.457Z,18.47
2017-11-30T18:59:58.959Z,18.30
2017-11-30T19:02:26.486Z,18.47
2017-11-30T19:04:54.004Z,18.63
2017-11-30T19:07:22.316Z,18.23
2017-11-30T19:09:49.825Z,19.40
2017-11-30T19:12:17.373Z,19.60
2017-11-30T19:14:44.895Z,18.10
2017-11-30T19:17:12.423Z,17.63
2017-11-30T19:19:40.701Z,18.13
2017-11-30T19:22:08.236Z,17.00
2017-11-30T19:24:35.743Z,17.00
2017-11-30T19:27:03.279Z,18.00
2017-11-30T19:29:31.557Z,17.30
2017-11-30T19:31:59.096Z,17.27
2017-11-30T19:34:27.435Z,18.67
2017-11-30T19:36:54.964Z,15.93
2017-11-30T19:39:22.472Z,16.20
2017-11-30T19:41:50.004Z,15.80
2017-11-30T19:44:17.504Z,16.93
2017-11-30T19:46:45.796Z,16.33
2017-11-30T19:49:14.062Z,20.93
2017-11-30T19:51:42.355Z,17.53
2017-11-30T19:54:09.864Z,15.90
2017-11-30T19:56:37.399Z,16.27
2017-11-30T19:59:04.899Z,15.23
2017-11-30T20:01:32.419Z,16.43
2017-11-30T20:03:59.931Z,17.13
2017-11-30T20:06:28.227Z,16.33
2017-11-30T20:08:55.736Z,16.73
2017-11-30T20:11:23.268Z,15.23
2017-11-30T20:13:50.771Z,16.17
2017-11-30T20:16:18.319Z,15.90
2017-11-30T20:18:45.820Z,15.43
2017-11-30T20:21:13.356Z,15.50
2017-11-30T20:23:41.636Z,13.60
2017-11-30T20:26:09.172Z,14.77
2017-11-30T20:28:36.682Z,14.40
2017-11-30T20:31:04.216Z,14.47
2017-11-30T20:33:31.733Z,14.60
2017-11-30T20:35:59.264Z,12.80
2017-11-30T20:38:26.775Z,13.47
2017-11-30T20:40:55.163Z,12.50
2017-11-30T20:43:23.440Z,13.53
2017-11-30T20:45:51.760Z,13.23
2017-11-30T20:48:19.264Z,13.20
2017-11-30T20:50:46.792Z,12.60
2017-11-30T20:53:14.305Z,13.77
2017-11-30T20:55:41.841Z,12.93
2017-11-30T20:58:09.343Z,14.33
2017-11-30T21:00:36.871Z,13.37
2017-11-30T21:03:05.148Z,14.70
2017-11-30T21:05:33.444Z,14.00
2017-11-30T21:08:00.953Z,14.30
2017-11-30T21:10:28.483Z,15.10
2017-11-30T21:12:55.988Z,15.40
2017-11-30T21:15:23.495Z,14.83
2017-11-30T21:17:51.027Z,14.73
2017-11-30T21:20:19.307Z,14.50
2017-11-30T21:22:46.861Z,14.50
2017-11-30T21:25:15.158Z,15.77
2017-11-30T21:27:42.688Z,16.33
2017-11-30T21:30:10.964Z,18.10
2017-11-30T21:32:39.252Z,14.20
2017-11-30T21:35:07.520Z,14.00
2017-11-30T21:37:35.936Z,14.90
2017-11-30T21:40:03.439Z,14.10
2017-11-30T21:42:30.972Z,15.37
2017-11-30T21:44:58.476Z,16.03
2017-11-30T21:47:26.766Z,17.13
2017-11-30T21:49:54.271Z,24.50
2017-11-30T21:52:21.802Z,13.83
2017-11-30T21:54:49.328Z,12.70
2017-11-30T21:57:17.623Z,13.87
2017-11-30T21:59:45.223Z,16.20
2017-11-30T22:02:12.772Z,13.83
2017-11-30T22:04:41.033Z,14.60
2017-11-30T22:07:08.572Z,15.00
2017-11-30T22:09:36.104Z,14.53
2017-11-30T22:12:03.635Z,13.90
2017-11-30T22:14:31.202Z,12.60
2017-11-30T22:16:58.783Z,12.90
2017-11-30T22:19:26.304Z,12.87
2017-11-30T22:21:53.819Z,13.13
2017-11-30T22:24:22.124Z,12.37
2017-11-30T22:26:49.632Z,13.80
2017-11-30T22:29:17.180Z,13.07
2017-11-30T22:31:44.912Z,12.87
2017-11-30T22:34:12.422Z,13.83
2017-11-30T22:36:39.965Z,13.23
2017-11-30T22:39:08.276Z,12.40
2017-11-30T22:41:35.821Z,11.53
2017-11-30T22:44:03.352Z,12.27
2017-11-30T22:46:30.979Z,11.50
2017-11-30T22:48:58.522Z,12.27
2017-11-30T22:51:26.036Z,13.53
2017-11-30T22:53:53.563Z,13.30
2017-11-30T22:56:21.080Z,13.70
2017-11-30T22:58:49.372Z,14.60
2017-11-30T23:01:16.875Z,13.30
2017-11-30T23:03:44.375Z,14.50
2017-11-30T23:06:12.673Z,15.03
2017-11-30T23:08:40.171Z,16.37
2017-11-30T23:11:07.700Z,16.00
2017-11-30T23:13:35.203Z,15.00
2017-11-30T23:16:02.722Z,15.43
2017-11-30T23:18:30.239Z,15.27
2017-11-30T23:20:58.502Z,15.80
2017-11-30T23:23:26.023Z,15.10
2017-11-30T23:25:53.522Z,14.80
2017-11-30T23:28:21.042Z,16.13
2017-11-30T23:30:48.539Z,13.80
2017-11-30T23:35:54.572Z,14.30
2017-11-30T23:38:22.072Z,15.00
2017-11-30T23:40:49.590Z,13.73
2017-11-30T23:43:17.091Z,13.20
2017-11-30T23:45:44.614Z,13.70
2017-11-30T23:48:12.110Z,14.23
2017-11-30T23:50:39.635Z,12.77
2017-11-30T23:53:07.158Z,13.70
2017-11-30T23:55:34.743Z,13.33
2017-11-30T23:58:02.253Z,14.17
